createdAt,value
2022-10-19T18:47:14.886Z,7.60
2022-10-19T18:49:43.375Z,7.40
2022-10-19T18:52:11.546Z,7.40
2022-10-19T18:54:40.158Z,7.50
2022-10-19T18:57:08.351Z,7.40
2022-10-19T18:59:36.666Z,7.50
2022-10-19T19:02:07.845Z,7.50
2022-10-19T19:04:43.360Z,7.40
2022-10-19T19:07:11.580Z,7.50
2022-10-19T19:09:39.955Z,7.40
2022-10-19T19:12:08.279Z,7.30
2022-10-19T19:14:38.911Z,7.30
2022-10-19T19:17:11.120Z,7.30
2022-10-19T19:19:41.041Z,7.30
2022-10-19T19:22:10.694Z,7.60
2022-10-19T19:24:42.154Z,7.20
2022-10-19T19:27:10.582Z,7.30
2022-10-19T19:30:00.856Z,7.10
2022-10-19T19:32:32.529Z,6.90
2022-10-19T19:35:05.001Z,7.00
2022-10-19T19:37:48.529Z,7.00
2022-10-19T19:40:17.069Z,6.90
2022-10-19T19:42:45.254Z,6.90
2022-10-19T19:45:17.098Z,7.00
2022-10-19T19:47:45.903Z,6.90
2022-10-19T19:50:14.209Z,6.90
2022-10-19T19:52:43.974Z,6.70
2022-10-19T19:55:12.251Z,6.80
2022-10-19T19:57:48.149Z,6.80
2022-10-19T20:00:19.887Z,6.70
2022-10-19T20:02:55.175Z,6.70
2022-10-19T20:05:24.641Z,6.60
2022-10-19T20:07:58.870Z,6.60
2022-10-19T20:10:29.822Z,6.70
2022-10-19T20:12:58.753Z,6.70
2022-10-19T20:15:28.256Z,6.60
2022-10-19T20:17:57.491Z,6.60
2022-10-19T20:20:25.874Z,6.60
2022-10-19T20:22:56.343Z,6.60
2022-10-19T20:25:24.907Z,6.50
2022-10-19T20:27:53.248Z,6.50
2022-10-19T20:30:21.602Z,6.40
2022-10-19T20:32:54.163Z,6.40
2022-10-19T20:35:23.046Z,6.40
2022-10-19T20:37:51.530Z,6.40
2022-10-19T20:40:21.350Z,6.40
2022-10-19T20:42:49.626Z,6.40
2022-10-19T20:45:18.233Z,6.50
2022-10-19T20:47:46.699Z,6.30
2022-10-19T20:50:16.091Z,6.20
2022-10-19T20:52:46.454Z,6.40
2022-10-19T20:55:14.829Z,6.30
2022-10-19T20:57:44.731Z,6.40
2022-10-19T21:00:14.390Z,6.40
2022-10-19T21:02:46.612Z,6.40
2022-10-19T21:05:15.073Z,6.70
2022-10-19T21:07:43.309Z,6.40
2022-10-19T21:10:11.679Z,6.30
2022-10-19T21:12:39.848Z,6.30
2022-10-19T21:15:10.552Z,6.30
2022-10-19T21:17:38.945Z,6.30
2022-10-19T21:20:08.010Z,6.30
2022-10-19T21:22:39.747Z,6.30
2022-10-19T21:25:11.466Z,6.30
2022-10-19T21:27:39.654Z,6.30
2022-10-19T21:30:10.486Z,6.10
2022-10-19T21:32:38.735Z,6.20
2022-10-19T21:35:07.446Z,6.10
2022-10-19T21:37:35.970Z,6.10
2022-10-19T21:40:04.768Z,6.10
2022-10-19T21:42:33.056Z,6.10
2022-10-19T21:45:25.262Z,6.10
2022-10-19T21:47:50.945Z,6.20
2022-10-19T21:50:20.005Z,6.10
2022-10-19T21:52:50.746Z,6.10
2022-10-19T21:55:18.967Z,6.00
2022-10-19T21:57:47.708Z,6.10
2022-10-19T22:00:15.956Z,6.00
2022-10-19T22:02:44.097Z,6.00
2022-10-19T22:05:13.648Z,6.00
2022-10-19T22:07:41.912Z,5.90
2022-10-19T22:10:10.746Z,5.80
2022-10-19T22:12:39.330Z,5.90
2022-10-19T22:15:08.537Z,5.80
2022-10-19T22:17:36.856Z,5.90
2022-10-19T22:20:05.680Z,5.80
2022-10-19T22:22:35.560Z,5.80
2022-10-19T22:25:04.076Z,5.80
2022-10-19T22:27:32.526Z,5.70
2022-10-19T22:30:00.654Z,5.60
2022-10-19T22:32:28.830Z,5.60
2022-10-19T22:34:57.040Z,5.50
2022-10-19T22:37:25.363Z,5.70
2022-10-19T22:39:54.935Z,5.60
2022-10-19T22:43:09.699Z,5.50
2022-10-19T22:45:37.920Z,5.60
2022-10-19T22:48:06.624Z,5.60
2022-10-19T22:50:35.079Z,5.60
2022-10-19T22:53:03.245Z,5.50
2022-10-19T22:55:32.862Z,5.40
2022-10-19T22:58:01.120Z,5.20
2022-10-19T23:00:30.281Z,5.10
2022-10-19T23:02:58.673Z,5.00
2022-10-19T23:05:26.975Z,4.90
2022-10-19T23:07:55.106Z,4.80
2022-10-19T23:10:23.667Z,4.80
2022-10-19T23:12:54.125Z,4.70
2022-10-19T23:15:23.156Z,4.70
2022-10-19T23:17:51.308Z,4.60
2022-10-19T23:20:19.530Z,4.60
2022-10-19T23:22:47.638Z,4.60
2022-10-19T23:25:15.990Z,4.60
2022-10-19T23:27:44.188Z,4.70
2022-10-19T23:30:13.939Z,4.60
2022-10-19T23:32:42.085Z,4.50
2022-10-19T23:35:10.746Z,4.40
2022-10-19T23:37:39.002Z,4.40
2022-10-19T23:40:08.403Z,4.40
2022-10-19T23:42:36.626Z,4.30
2022-10-19T23:45:05.494Z,4.30
2022-10-19T23:47:35.177Z,4.30
2022-10-19T23:50:03.716Z,4.20
2022-10-19T23:52:31.892Z,4.20
2022-10-19T23:55:00.152Z,4.10
2022-10-19T23:57:28.486Z,4.20
2022-10-19T23:59:56.655Z,4.10
